sensor_id;sensor_type;location;lat;lon;timestamp;temperature;humidity
7194;DHT22;3638;48.820;9.244;2023-05-19T00:02:28;11.50;99.90
7194;DHT22;3638;48.820;9.244;2023-05-19T00:04:58;11.40;99.90
7194;DHT22;3638;48.820;9.244;2023-05-19T00:07:29;11.60;99.90
7194;DHT22;3638;48.820;9.244;2023-05-19T00:09:57;11.60;99.90
7194;DHT22;3638;48.820;9.244;2023-05-19T00:12:25;11.60;99.90
7194;DHT22;3638;48.820;9.244;2023-05-19T00:14:53;11.70;99.90
7194;DHT22;3638;48.820;9.244;2023-05-19T00:17:21;11.70;99.90
7194;DHT22;3638;48.820;9.244;2023-05-19T00:19:49;11.80;99.90
7194;DHT22;3638;48.820;9.244;2023-05-19T00:22:16;11.80;99.90
7194;DHT22;3638;48.820;9.244;2023-05-19T00:24:43;11.60;99.90
7194;DHT22;3638;48.820;9.244;2023-05-19T00:27:10;11.60;99.90
7194;DHT22;3638;48.820;9.244;2023-05-19T00:29:37;11.70;99.90
7194;DHT22;3638;48.820;9.244;2023-05-19T00:32:04;11.70;99.90
7194;DHT22;3638;48.820;9.244;2023-05-19T00:34:32;11.70;99.90
7194;DHT22;3638;48.820;9.244;2023-05-19T00:36:59;11.70;99.90
7194;DHT22;3638;48.820;9.244;2023-05-19T00:39:26;11.70;99.90
7194;DHT22;3638;48.820;9.244;2023-05-19T00:41:53;11.60;99.90
7194;DHT22;3638;48.820;9.244;2023-05-19T00:44:20;11.60;99.90
7194;DHT22;3638;48.820;9.244;2023-05-19T00:46:46;11.60;99.90
7194;DHT22;3638;48.820;9.244;2023-05-19T00:49:13;11.80;99.90
7194;DHT22;3638;48.820;9.244;2023-05-19T00:51:42;11.80;99.90
7194;DHT22;3638;48.820;9.244;2023-05-19T00:54:09;11.60;99.90
7194;DHT22;3638;48.820;9.244;2023-05-19T00:56:36;11.60;99.90
7194;DHT22;3638;48.820;9.244;2023-05-19T00:59:03;11.60;99.90
7194;DHT22;3638;48.820;9.244;2023-05-19T01:01:30;11.60;99.90
7194;DHT22;3638;48.820;9.244;2023-05-19T01:03:57;11.70;99.90
7194;DHT22;3638;48.820;9.244;2023-05-19T01:06:24;11.70;99.90
7194;DHT22;3638;48.820;9.244;2023-05-19T01:08:53;11.80;99.90
7194;DHT22;3638;48.820;9.244;2023-05-19T01:11:21;11.80;99.90
7194;DHT22;3638;48.820;9.244;2023-05-19T01:13:48;11.70;99.90
7194;DHT22;3638;48.820;9.244;2023-05-19T01:16:20;11.60;99.90
7194;DHT22;3638;48.820;9.244;2023-05-19T01:18:54;11.60;99.90
7194;DHT22;3638;48.820;9.244;2023-05-19T01:21:52;11.60;99.90
7194;DHT22;3638;48.820;9.244;2023-05-19T01:24:50;11.60;99.90
7194;DHT22;3638;48.820;9.244;2023-05-19T01:28:19;11.60;99.90
7194;DHT22;3638;48.820;9.244;2023-05-19T01:30:54;11.60;99.90
7194;DHT22;3638;48.820;9.244;2023-05-19T01:33:23;11.70;99.90
7194;DHT22;3638;48.820;9.244;2023-05-19T01:35:50;11.70;99.90
7194;DHT22;3638;48.820;9.244;2023-05-19T01:38:19;11.70;99.90
7194;DHT22;3638;48.820;9.244;2023-05-19T01:40:47;11.80;99.90
7194;DHT22;3638;48.820;9.244;2023-05-19T01:43:16;11.90;99.90
7194;DHT22;3638;48.820;9.244;2023-05-19T01:45:45;11.80;99.90
7194;DHT22;3638;48.820;9.244;2023-05-19T01:48:14;11.80;99.90
7194;DHT22;3638;48.820;9.244;2023-05-19T01:50:42;11.80;99.90
7194;DHT22;3638;48.820;9.244;2023-05-19T01:53:09;11.70;99.90
7194;DHT22;3638;48.820;9.244;2023-05-19T01:55:42;11.60;99.90
7194;DHT22;3638;48.820;9.244;2023-05-19T01:58:16;11.50;99.90
7194;DHT22;3638;48.820;9.244;2023-05-19T02:00:51;11.30;99.90
7194;DHT22;3638;48.820;9.244;2023-05-19T02:03:36;11.40;99.90
7194;DHT22;3638;48.820;9.244;2023-05-19T02:06:18;11.30;99.90
7194;DHT22;3638;48.820;9.244;2023-05-19T02:08:56;11.40;99.90
7194;DHT22;3638;48.820;9.244;2023-05-19T02:11:30;11.40;99.90
7194;DHT22;3638;48.820;9.244;2023-05-19T02:14:07;15.10;99.90
7194;DHT22;3638;48.820;9.244;2023-05-19T02:16:35;11.40;99.90
7194;DHT22;3638;48.820;9.244;2023-05-19T02:19:04;11.40;99.90
7194;DHT22;3638;48.820;9.244;2023-05-19T02:23:58;11.30;99.90
7194;DHT22;3638;48.820;9.244;2023-05-19T02:26:25;11.30;99.90
7194;DHT22;3638;48.820;9.244;2023-05-19T02:28:52;11.20;99.90
7194;DHT22;3638;48.820;9.244;2023-05-19T02:31:19;11.20;99.90
7194;DHT22;3638;48.820;9.244;2023-05-19T02:33:46;11.20;99.90
7194;DHT22;3638;48.820;9.244;2023-05-19T02:36:14;11.20;99.90
7194;DHT22;3638;48.820;9.244;2023-05-19T02:38:41;11.20;99.90
7194;DHT22;3638;48.820;9.244;2023-05-19T02:41:08;11.20;99.90
7194;DHT22;3638;48.820;9.244;2023-05-19T02:43:35;11.10;99.90
7194;DHT22;3638;48.820;9.244;2023-05-19T02:48:29;11.10;99.90
7194;DHT22;3638;48.820;9.244;2023-05-19T02:50:56;11.10;99.90
7194;DHT22;3638;48.820;9.244;2023-05-19T02:53:24;11.10;99.90
7194;DHT22;3638;48.820;9.244;2023-05-19T02:55:51;11.10;99.90
7194;DHT22;3638;48.820;9.244;2023-05-19T02:58:18;11.10;99.90
7194;DHT22;3638;48.820;9.244;2023-05-19T03:00:45;11.00;99.90
7194;DHT22;3638;48.820;9.244;2023-05-19T03:03:12;11.00;99.90
7194;DHT22;3638;48.820;9.244;2023-05-19T03:05:40;10.90;99.90
7194;DHT22;3638;48.820;9.244;2023-05-19T03:08:06;11.00;99.90
7194;DHT22;3638;48.820;9.244;2023-05-19T03:10:35;11.00;99.90
7194;DHT22;3638;48.820;9.244;2023-05-19T03:13:01;11.00;99.90
7194;DHT22;3638;48.820;9.244;2023-05-19T03:15:28;11.00;99.90
7194;DHT22;3638;48.820;9.244;2023-05-19T03:17:55;10.80;99.90
7194;DHT22;3638;48.820;9.244;2023-05-19T03:20:22;10.80;99.90
7194;DHT22;3638;48.820;9.244;2023-05-19T03:22:49;10.70;99.90
7194;DHT22;3638;48.820;9.244;2023-05-19T03:25:16;10.80;99.90
7194;DHT22;3638;48.820;9.244;2023-05-19T03:27:45;10.70;99.90
7194;DHT22;3638;48.820;9.244;2023-05-19T03:30:12;10.70;99.90
7194;DHT22;3638;48.820;9.244;2023-05-19T03:35:07;10.70;99.90
7194;DHT22;3638;48.820;9.244;2023-05-19T03:37:34;10.70;99.90
7194;DHT22;3638;48.820;9.244;2023-05-19T03:40:01;10.60;99.90
7194;DHT22;3638;48.820;9.244;2023-05-19T03:42:30;10.50;99.90
7194;DHT22;3638;48.820;9.244;2023-05-19T03:44:58;10.50;99.90
7194;DHT22;3638;48.820;9.244;2023-05-19T03:47:25;10.50;99.90
7194;DHT22;3638;48.820;9.244;2023-05-19T03:49:52;10.30;99.90
7194;DHT22;3638;48.820;9.244;2023-05-19T03:52:19;10.30;99.90
7194;DHT22;3638;48.820;9.244;2023-05-19T03:54:46;10.20;99.90
7194;DHT22;3638;48.820;9.244;2023-05-19T03:57:13;10.20;99.90
7194;DHT22;3638;48.820;9.244;2023-05-19T03:59:40;10.20;99.90
7194;DHT22;3638;48.820;9.244;2023-05-19T04:02:09;10.20;99.90
7194;DHT22;3638;48.820;9.244;2023-05-19T04:04:36;10.10;99.90
7194;DHT22;3638;48.820;9.244;2023-05-19T04:07:03;10.10;99.90
7194;DHT22;3638;48.820;9.244;2023-05-19T04:09:30;10.20;99.90
7194;DHT22;3638;48.820;9.244;2023-05-19T04:11:59;10.10;99.90
7194;DHT22;3638;48.820;9.244;2023-05-19T04:14:26;10.20;99.90
7194;DHT22;3638;48.820;9.244;2023-05-19T04:16:53;10.10;99.90
7194;DHT22;3638;48.820;9.244;2023-05-19T04:19:22;10.20;99.90
7194;DHT22;3638;48.820;9.244;2023-05-19T04:21:48;10.20;99.90
7194;DHT22;3638;48.820;9.244;2023-05-19T04:24:15;10.20;99.90
7194;DHT22;3638;48.820;9.244;2023-05-19T04:26:42;10.10;99.90
7194;DHT22;3638;48.820;9.244;2023-05-19T04:29:11;10.20;99.90
7194;DHT22;3638;48.820;9.244;2023-05-19T04:31:42;10.20;99.90
7194;DHT22;3638;48.820;9.244;2023-05-19T04:34:09;10.30;99.90
7194;DHT22;3638;48.820;9.244;2023-05-19T04:36:38;11.20;99.90
7194;DHT22;3638;48.820;9.244;2023-05-19T04:39:04;10.40;99.90
7194;DHT22;3638;48.820;9.244;2023-05-19T04:41:34;10.50;99.90
7194;DHT22;3638;48.820;9.244;2023-05-19T04:44:04;10.50;99.90
7194;DHT22;3638;48.820;9.244;2023-05-19T04:46:31;10.50;99.90
7194;DHT22;3638;48.820;9.244;2023-05-19T04:48:58;10.70;99.90
7194;DHT22;3638;48.820;9.244;2023-05-19T04:51:27;10.70;99.90
7194;DHT22;3638;48.820;9.244;2023-05-19T04:53:57;10.60;99.90
7194;DHT22;3638;48.820;9.244;2023-05-19T04:56:24;10.60;99.90
7194;DHT22;3638;48.820;9.244;2023-05-19T04:58:51;10.70;99.90
7194;DHT22;3638;48.820;9.244;2023-05-19T05:01:19;10.80;99.90
7194;DHT22;3638;48.820;9.244;2023-05-19T05:03:50;10.70;99.90
7194;DHT22;3638;48.820;9.244;2023-05-19T05:06:19;10.80;99.90
7194;DHT22;3638;48.820;9.244;2023-05-19T05:08:46;10.80;99.90
7194;DHT22;3638;48.820;9.244;2023-05-19T05:11:15;11.10;99.90
7194;DHT22;3638;48.820;9.244;2023-05-19T05:13:42;11.30;99.90
7194;DHT22;3638;48.820;9.244;2023-05-19T05:16:11;11.40;99.90
7194;DHT22;3638;48.820;9.244;2023-05-19T05:18:39;11.40;99.90
7194;DHT22;3638;48.820;9.244;2023-05-19T05:21:08;11.60;99.90
7194;DHT22;3638;48.820;9.244;2023-05-19T05:23:35;11.90;99.90
7194;DHT22;3638;48.820;9.244;2023-05-19T05:26:08;12.10;99.90
7194;DHT22;3638;48.820;9.244;2023-05-19T05:28:40;12.10;99.90
7194;DHT22;3638;48.820;9.244;2023-05-19T05:31:07;12.20;99.90
7194;DHT22;3638;48.820;9.244;2023-05-19T05:33:34;12.40;99.90
7194;DHT22;3638;48.820;9.244;2023-05-19T05:36:01;12.60;99.90
7194;DHT22;3638;48.820;9.244;2023-05-19T05:38:29;12.60;99.90
7194;DHT22;3638;48.820;9.244;2023-05-19T05:40:56;13.00;99.90
7194;DHT22;3638;48.820;9.244;2023-05-19T05:45:51;13.20;99.90
7194;DHT22;3638;48.820;9.244;2023-05-19T05:48:19;13.30;99.90
7194;DHT22;3638;48.820;9.244;2023-05-19T05:50:47;13.60;99.90
7194;DHT22;3638;48.820;9.244;2023-05-19T05:53:17;13.50;99.90
7194;DHT22;3638;48.820;9.244;2023-05-19T05:55:46;13.30;99.90
7194;DHT22;3638;48.820;9.244;2023-05-19T05:58:13;13.10;99.90
7194;DHT22;3638;48.820;9.244;2023-05-19T06:00:41;13.10;99.90
7194;DHT22;3638;48.820;9.244;2023-05-19T06:03:11;13.40;99.90
7194;DHT22;3638;48.820;9.244;2023-05-19T06:05:39;13.50;99.90
7194;DHT22;3638;48.820;9.244;2023-05-19T06:08:05;13.20;99.90
7194;DHT22;3638;48.820;9.244;2023-05-19T06:10:32;12.90;99.90
7194;DHT22;3638;48.820;9.244;2023-05-19T06:13:01;13.10;99.90
7194;DHT22;3638;48.820;9.244;2023-05-19T06:15:27;13.40;99.90
7194;DHT22;3638;48.820;9.244;2023-05-19T06:17:54;13.40;99.90
7194;DHT22;3638;48.820;9.244;2023-05-19T06:20:23;13.80;99.90
7194;DHT22;3638;48.820;9.244;2023-05-19T06:25:17;14.30;99.90
7194;DHT22;3638;48.820;9.244;2023-05-19T06:27:45;14.40;99.90
7194;DHT22;3638;48.820;9.244;2023-05-19T06:30:12;14.80;99.90
7194;DHT22;3638;48.820;9.244;2023-05-19T06:35:07;14.80;99.90
7194;DHT22;3638;48.820;9.244;2023-05-19T06:37:35;14.80;99.90
7194;DHT22;3638;48.820;9.244;2023-05-19T06:40:03;15.00;99.90
7194;DHT22;3638;48.820;9.244;2023-05-19T06:42:31;14.80;99.90
7194;DHT22;3638;48.820;9.244;2023-05-19T06:44:58;15.00;99.90
7194;DHT22;3638;48.820;9.244;2023-05-19T06:47:25;15.20;99.90
7194;DHT22;3638;48.820;9.244;2023-05-19T06:49:52;15.20;99.90
7194;DHT22;3638;48.820;9.244;2023-05-19T06:52:20;15.20;99.90
7194;DHT22;3638;48.820;9.244;2023-05-19T06:54:48;14.90;99.90
7194;DHT22;3638;48.820;9.244;2023-05-19T06:57:15;14.90;99.90
7194;DHT22;3638;48.820;9.244;2023-05-19T06:59:42;15.10;99.90
7194;DHT22;3638;48.820;9.244;2023-05-19T07:02:11;16.00;99.90
7194;DHT22;3638;48.820;9.244;2023-05-19T07:04:38;16.20;99.90
7194;DHT22;3638;48.820;9.244;2023-05-19T07:07:05;16.50;99.90
7194;DHT22;3638;48.820;9.244;2023-05-19T07:09:32;16.50;99.90
7194;DHT22;3638;48.820;9.244;2023-05-19T07:12:01;16.70;99.90
7194;DHT22;3638;48.820;9.244;2023-05-19T07:14:28;15.90;99.90
7194;DHT22;3638;48.820;9.244;2023-05-19T07:16:55;15.80;99.90
7194;DHT22;3638;48.820;9.244;2023-05-19T07:19:22;15.60;99.90
7194;DHT22;3638;48.820;9.244;2023-05-19T07:21:49;15.70;99.90
7194;DHT22;3638;48.820;9.244;2023-05-19T07:24:16;15.60;99.90
7194;DHT22;3638;48.820;9.244;2023-05-19T07:26:43;15.10;99.90
7194;DHT22;3638;48.820;9.244;2023-05-19T07:29:12;15.00;99.90
7194;DHT22;3638;48.820;9.244;2023-05-19T07:31:38;15.00;99.90
7194;DHT22;3638;48.820;9.244;2023-05-19T07:34:05;14.70;99.90
7194;DHT22;3638;48.820;9.244;2023-05-19T07:36:33;14.80;99.90
7194;DHT22;3638;48.820;9.244;2023-05-19T07:39:00;14.90;99.90
7194;DHT22;3638;48.820;9.244;2023-05-19T07:41:27;14.60;99.90
7194;DHT22;3638;48.820;9.244;2023-05-19T07:48:50;15.10;99.90
7194;DHT22;3638;48.820;9.244;2023-05-19T07:51:16;15.10;99.90
7194;DHT22;3638;48.820;9.244;2023-05-19T07:53:43;15.00;99.90
7194;DHT22;3638;48.820;9.244;2023-05-19T07:56:11;15.00;99.90
7194;DHT22;3638;48.820;9.244;2023-05-19T07:58:38;14.50;99.90
7194;DHT22;3638;48.820;9.244;2023-05-19T08:01:05;14.50;99.90
7194;DHT22;3638;48.820;9.244;2023-05-19T08:03:33;14.50;99.90
7194;DHT22;3638;48.820;9.244;2023-05-19T08:06:00;14.40;99.90
7194;DHT22;3638;48.820;9.244;2023-05-19T08:08:27;14.50;99.90
7194;DHT22;3638;48.820;9.244;2023-05-19T08:10:54;14.50;99.90
7194;DHT22;3638;48.820;9.244;2023-05-19T08:13:20;14.50;99.90
7194;DHT22;3638;48.820;9.244;2023-05-19T08:15:47;14.50;99.90
7194;DHT22;3638;48.820;9.244;2023-05-19T08:18:14;14.10;99.90
7194;DHT22;3638;48.820;9.244;2023-05-19T08:20:42;14.00;99.90
7194;DHT22;3638;48.820;9.244;2023-05-19T08:23:10;14.00;99.90
7194;DHT22;3638;48.820;9.244;2023-05-19T08:25:37;14.00;99.90
7194;DHT22;3638;48.820;9.244;2023-05-19T08:28:05;14.20;99.90
7194;DHT22;3638;48.820;9.244;2023-05-19T08:30:31;14.20;99.90
7194;DHT22;3638;48.820;9.244;2023-05-19T08:32:58;14.60;99.90
7194;DHT22;3638;48.820;9.244;2023-05-19T08:35:25;15.00;99.90
7194;DHT22;3638;48.820;9.244;2023-05-19T08:37:53;14.80;99.90
7194;DHT22;3638;48.820;9.244;2023-05-19T08:40:21;14.80;99.90
7194;DHT22;3638;48.820;9.244;2023-05-19T08:42:48;14.60;99.90
7194;DHT22;3638;48.820;9.244;2023-05-19T08:45:15;14.40;99.90
7194;DHT22;3638;48.820;9.244;2023-05-19T08:47:45;14.50;99.90
7194;DHT22;3638;48.820;9.244;2023-05-19T08:50:16;14.40;99.90
7194;DHT22;3638;48.820;9.244;2023-05-19T08:52:50;14.40;99.90
7194;DHT22;3638;48.820;9.244;2023-05-19T08:55:24;14.40;99.90
7194;DHT22;3638;48.820;9.244;2023-05-19T08:57:58;14.40;99.90
7194;DHT22;3638;48.820;9.244;2023-05-19T09:00:27;14.40;99.90
7194;DHT22;3638;48.820;9.244;2023-05-19T09:02:54;14.50;99.90
7194;DHT22;3638;48.820;9.244;2023-05-19T09:05:22;14.50;99.90
7194;DHT22;3638;48.820;9.244;2023-05-19T09:07:49;14.50;99.90
7194;DHT22;3638;48.820;9.244;2023-05-19T09:10:16;14.70;99.90
7194;DHT22;3638;48.820;9.244;2023-05-19T09:12:45;14.70;99.90
7194;DHT22;3638;48.820;9.244;2023-05-19T09:15:15;14.60;99.90
7194;DHT22;3638;48.820;9.244;2023-05-19T09:17:44;14.70;99.90
7194;DHT22;3638;48.820;9.244;2023-05-19T09:20:13;14.90;99.90
7194;DHT22;3638;48.820;9.244;2023-05-19T09:22:42;15.10;99.90
7194;DHT22;3638;48.820;9.244;2023-05-19T09:25:17;15.10;99.90
7194;DHT22;3638;48.820;9.244;2023-05-19T09:27:47;15.10;99.90
7194;DHT22;3638;48.820;9.244;2023-05-19T09:30:15;15.30;99.90
7194;DHT22;3638;48.820;9.244;2023-05-19T09:32:42;15.60;99.90
7194;DHT22;3638;48.820;9.244;2023-05-19T09:35:10;15.50;99.90
7194;DHT22;3638;48.820;9.244;2023-05-19T09:37:41;15.30;99.90
7194;DHT22;3638;48.820;9.244;2023-05-19T09:40:09;15.20;99.90
7194;DHT22;3638;48.820;9.244;2023-05-19T09:42:41;15.00;99.90
7194;DHT22;3638;48.820;9.244;2023-05-19T09:45:10;15.00;99.90
7194;DHT22;3638;48.820;9.244;2023-05-19T09:47:38;15.20;99.90
7194;DHT22;3638;48.820;9.244;2023-05-19T09:50:08;15.20;99.90
7194;DHT22;3638;48.820;9.244;2023-05-19T09:52:36;15.60;99.90
7194;DHT22;3638;48.820;9.244;2023-05-19T09:55:04;15.60;99.90
7194;DHT22;3638;48.820;9.244;2023-05-19T09:57:35;15.60;99.90
7194;DHT22;3638;48.820;9.244;2023-05-19T10:00:06;15.60;99.90
7194;DHT22;3638;48.820;9.244;2023-05-19T10:02:42;15.80;99.90
7194;DHT22;3638;48.820;9.244;2023-05-19T10:05:12;15.40;99.90
7194;DHT22;3638;48.820;9.244;2023-05-19T10:07:43;15.60;99.90
7194;DHT22;3638;48.820;9.244;2023-05-19T10:10:13;15.50;99.90
7194;DHT22;3638;48.820;9.244;2023-05-19T10:12:41;15.60;99.90
7194;DHT22;3638;48.820;9.244;2023-05-19T10:15:09;14.70;99.90
7194;DHT22;3638;48.820;9.244;2023-05-19T10:17:38;14.60;99.90
7194;DHT22;3638;48.820;9.244;2023-05-19T10:20:09;14.60;99.90
7194;DHT22;3638;48.820;9.244;2023-05-19T10:22:38;14.60;99.90
7194;DHT22;3638;48.820;9.244;2023-05-19T10:25:07;14.80;99.90
7194;DHT22;3638;48.820;9.244;2023-05-19T10:27:36;14.90;99.90
7194;DHT22;3638;48.820;9.244;2023-05-19T10:30:07;14.70;99.90
7194;DHT22;3638;48.820;9.244;2023-05-19T10:32:39;14.50;99.90
7194;DHT22;3638;48.820;9.244;2023-05-19T10:35:19;14.60;99.90
7194;DHT22;3638;48.820;9.244;2023-05-19T10:37:58;14.60;99.90
7194;DHT22;3638;48.820;9.244;2023-05-19T10:40:35;14.60;99.90
7194;DHT22;3638;48.820;9.244;2023-05-19T10:43:14;14.80;99.90
7194;DHT22;3638;48.820;9.244;2023-05-19T10:45:48;15.00;99.90
7194;DHT22;3638;48.820;9.244;2023-05-19T10:48:19;15.10;99.90
7194;DHT22;3638;48.820;9.244;2023-05-19T10:50:51;15.20;99.90
7194;DHT22;3638;48.820;9.244;2023-05-19T10:53:18;15.50;99.90
7194;DHT22;3638;48.820;9.244;2023-05-19T10:55:50;15.40;99.90
7194;DHT22;3638;48.820;9.244;2023-05-19T10:58:48;15.40;99.90
7194;DHT22;3638;48.820;9.244;2023-05-19T11:01:17;15.30;99.90
7194;DHT22;3638;48.820;9.244;2023-05-19T11:03:46;15.20;99.90
7194;DHT22;3638;48.820;9.244;2023-05-19T11:06:25;15.20;99.90
7194;DHT22;3638;48.820;9.244;2023-05-19T11:08:53;15.20;99.90
7194;DHT22;3638;48.820;9.244;2023-05-19T11:11:22;15.30;99.90
7194;DHT22;3638;48.820;9.244;2023-05-19T11:13:51;15.20;99.90
7194;DHT22;3638;48.820;9.244;2023-05-19T11:16:25;15.20;99.90
7194;DHT22;3638;48.820;9.244;2023-05-19T11:18:54;15.20;99.90
7194;DHT22;3638;48.820;9.244;2023-05-19T11:21:22;15.40;99.90
7194;DHT22;3638;48.820;9.244;2023-05-19T11:23:50;15.40;99.90
7194;DHT22;3638;48.820;9.244;2023-05-19T11:26:38;15.20;99.90
7194;DHT22;3638;48.820;9.244;2023-05-19T11:29:06;15.00;99.90
7194;DHT22;3638;48.820;9.244;2023-05-19T11:31:35;14.80;99.90
7194;DHT22;3638;48.820;9.244;2023-05-19T11:34:02;14.70;99.90
7194;DHT22;3638;48.820;9.244;2023-05-19T11:36:35;14.80;99.90
7194;DHT22;3638;48.820;9.244;2023-05-19T11:39:03;14.80;99.90
7194;DHT22;3638;48.820;9.244;2023-05-19T11:41:31;14.80;99.90
7194;DHT22;3638;48.820;9.244;2023-05-19T11:43:58;15.00;99.90
7194;DHT22;3638;48.820;9.244;2023-05-19T11:46:25;15.00;99.90
7194;DHT22;3638;48.820;9.244;2023-05-19T11:48:52;15.00;99.90
7194;DHT22;3638;48.820;9.244;2023-05-19T11:51:20;15.10;99.90
7194;DHT22;3638;48.820;9.244;2023-05-19T11:53:49;15.10;99.90
7194;DHT22;3638;48.820;9.244;2023-05-19T11:56:18;15.40;99.90
7194;DHT22;3638;48.820;9.244;2023-05-19T11:58:46;15.60;99.90
7194;DHT22;3638;48.820;9.244;2023-05-19T12:01:13;15.60;99.90
7194;DHT22;3638;48.820;9.244;2023-05-19T12:03:40;15.90;99.90
7194;DHT22;3638;48.820;9.244;2023-05-19T12:06:07;16.10;99.90
7194;DHT22;3638;48.820;9.244;2023-05-19T12:08:34;16.20;99.90
7194;DHT22;3638;48.820;9.244;2023-05-19T12:11:04;15.90;99.90
7194;DHT22;3638;48.820;9.244;2023-05-19T12:13:32;16.10;99.90
7194;DHT22;3638;48.820;9.244;2023-05-19T12:15:59;16.40;99.90
7194;DHT22;3638;48.820;9.244;2023-05-19T12:18:28;16.50;99.90
7194;DHT22;3638;48.820;9.244;2023-05-19T12:20:56;16.60;99.90
7194;DHT22;3638;48.820;9.244;2023-05-19T12:23:23;16.60;99.90
7194;DHT22;3638;48.820;9.244;2023-05-19T12:25:50;16.00;99.90
7194;DHT22;3638;48.820;9.244;2023-05-19T12:28:19;16.00;99.90
7194;DHT22;3638;48.820;9.244;2023-05-19T12:30:47;15.50;99.90
7194;DHT22;3638;48.820;9.244;2023-05-19T12:33:16;15.50;99.90
7194;DHT22;3638;48.820;9.244;2023-05-19T12:35:44;15.60;99.90
7194;DHT22;3638;48.820;9.244;2023-05-19T12:38:13;16.10;99.90
7194;DHT22;3638;48.820;9.244;2023-05-19T12:40:41;15.80;99.90
7194;DHT22;3638;48.820;9.244;2023-05-19T12:43:19;15.70;99.90
7194;DHT22;3638;48.820;9.244;2023-05-19T12:45:46;15.40;99.90
7194;DHT22;3638;48.820;9.244;2023-05-19T12:48:14;15.30;99.90
7194;DHT22;3638;48.820;9.244;2023-05-19T12:50:41;15.30;99.90
7194;DHT22;3638;48.820;9.244;2023-05-19T12:53:10;15.30;99.90
7194;DHT22;3638;48.820;9.244;2023-05-19T12:55:38;15.20;99.90
7194;DHT22;3638;48.820;9.244;2023-05-19T12:58:08;15.20;99.90
7194;DHT22;3638;48.820;9.244;2023-05-19T13:00:40;15.20;99.90
7194;DHT22;3638;48.820;9.244;2023-05-19T13:03:14;15.30;99.90
7194;DHT22;3638;48.820;9.244;2023-05-19T13:05:43;15.30;99.90
7194;DHT22;3638;48.820;9.244;2023-05-19T13:08:13;15.30;99.90
7194;DHT22;3638;48.820;9.244;2023-05-19T13:10:42;15.90;99.90
7194;DHT22;3638;48.820;9.244;2023-05-19T13:13:10;15.40;99.90
7194;DHT22;3638;48.820;9.244;2023-05-19T13:15:40;15.50;99.90
7194;DHT22;3638;48.820;9.244;2023-05-19T13:18:10;15.50;99.90
7194;DHT22;3638;48.820;9.244;2023-05-19T13:20:38;15.60;99.90
7194;DHT22;3638;48.820;9.244;2023-05-19T13:23:06;15.50;99.90
7194;DHT22;3638;48.820;9.244;2023-05-19T13:25:35;15.40;99.90
7194;DHT22;3638;48.820;9.244;2023-05-19T13:28:02;15.50;99.90
7194;DHT22;3638;48.820;9.244;2023-05-19T13:30:30;15.20;99.90
7194;DHT22;3638;48.820;9.244;2023-05-19T13:32:59;15.20;99.90
7194;DHT22;3638;48.820;9.244;2023-05-19T13:35:26;15.30;99.90
7194;DHT22;3638;48.820;9.244;2023-05-19T13:37:53;15.30;99.90
7194;DHT22;3638;48.820;9.244;2023-05-19T13:40:20;15.30;99.90
7194;DHT22;3638;48.820;9.244;2023-05-19T13:42:48;15.20;99.90
7194;DHT22;3638;48.820;9.244;2023-05-19T13:45:15;15.20;99.90
7194;DHT22;3638;48.820;9.244;2023-05-19T13:47:42;15.10;99.90
7194;DHT22;3638;48.820;9.244;2023-05-19T13:50:10;15.10;99.90
7194;DHT22;3638;48.820;9.244;2023-05-19T13:52:37;15.10;99.90
7194;DHT22;3638;48.820;9.244;2023-05-19T13:55:06;15.30;99.90
7194;DHT22;3638;48.820;9.244;2023-05-19T13:57:33;15.20;99.90
7194;DHT22;3638;48.820;9.244;2023-05-19T14:00:01;15.30;99.90
7194;DHT22;3638;48.820;9.244;2023-05-19T14:02:30;15.30;99.90
7194;DHT22;3638;48.820;9.244;2023-05-19T14:04:57;15.40;99.90
7194;DHT22;3638;48.820;9.244;2023-05-19T14:07:25;15.50;99.90
7194;DHT22;3638;48.820;9.244;2023-05-19T14:09:52;15.90;99.90
7194;DHT22;3638;48.820;9.244;2023-05-19T14:12:19;15.90;99.90
7194;DHT22;3638;48.820;9.244;2023-05-19T14:14:46;15.90;99.90
7194;DHT22;3638;48.820;9.244;2023-05-19T14:17:14;15.90;99.90
7194;DHT22;3638;48.820;9.244;2023-05-19T14:19:41;16.10;99.90
7194;DHT22;3638;48.820;9.244;2023-05-19T14:22:08;16.10;99.90
7194;DHT22;3638;48.820;9.244;2023-05-19T14:24:36;16.00;99.90
7194;DHT22;3638;48.820;9.244;2023-05-19T14:27:03;16.10;99.90
7194;DHT22;3638;48.820;9.244;2023-05-19T14:29:30;15.90;99.90
7194;DHT22;3638;48.820;9.244;2023-05-19T14:31:57;15.90;99.90
7194;DHT22;3638;48.820;9.244;2023-05-19T14:34:23;15.80;99.90
7194;DHT22;3638;48.820;9.244;2023-05-19T14:36:51;15.70;99.90
7194;DHT22;3638;48.820;9.244;2023-05-19T14:39:18;15.70;99.90
7194;DHT22;3638;48.820;9.244;2023-05-19T14:41:46;15.70;99.90
7194;DHT22;3638;48.820;9.244;2023-05-19T14:44:13;15.60;99.90
7194;DHT22;3638;48.820;9.244;2023-05-19T14:46:40;15.80;99.90
7194;DHT22;3638;48.820;9.244;2023-05-19T14:49:07;15.80;99.90
7194;DHT22;3638;48.820;9.244;2023-05-19T14:51:34;15.80;99.90
7194;DHT22;3638;48.820;9.244;2023-05-19T14:54:01;15.80;99.90
7194;DHT22;3638;48.820;9.244;2023-05-19T14:56:28;15.80;99.90
7194;DHT22;3638;48.820;9.244;2023-05-19T14:58:56;15.70;99.90
7194;DHT22;3638;48.820;9.244;2023-05-19T15:01:23;15.70;99.90
7194;DHT22;3638;48.820;9.244;2023-05-19T15:03:50;15.70;99.90
7194;DHT22;3638;48.820;9.244;2023-05-19T15:06:17;15.60;99.90
7194;DHT22;3638;48.820;9.244;2023-05-19T15:08:44;15.50;99.90
7194;DHT22;3638;48.820;9.244;2023-05-19T15:11:10;15.40;99.90
7194;DHT22;3638;48.820;9.244;2023-05-19T15:13:37;15.40;99.90
7194;DHT22;3638;48.820;9.244;2023-05-19T15:16:06;15.60;99.90
7194;DHT22;3638;48.820;9.244;2023-05-19T15:18:34;15.80;99.90
7194;DHT22;3638;48.820;9.244;2023-05-19T15:21:01;16.10;99.90
7194;DHT22;3638;48.820;9.244;2023-05-19T15:23:28;16.10;99.90
7194;DHT22;3638;48.820;9.244;2023-05-19T15:25:55;16.00;99.90
7194;DHT22;3638;48.820;9.244;2023-05-19T15:28:22;16.00;99.90
7194;DHT22;3638;48.820;9.244;2023-05-19T15:30:49;15.90;99.90
7194;DHT22;3638;48.820;9.244;2023-05-19T15:33:17;16.00;99.90
7194;DHT22;3638;48.820;9.244;2023-05-19T15:35:43;16.00;99.90
7194;DHT22;3638;48.820;9.244;2023-05-19T15:38:12;16.00;99.90
7194;DHT22;3638;48.820;9.244;2023-05-19T15:40:40;16.10;99.90
7194;DHT22;3638;48.820;9.244;2023-05-19T15:43:07;16.00;99.90
7194;DHT22;3638;48.820;9.244;2023-05-19T15:45:34;15.90;99.90
7194;DHT22;3638;48.820;9.244;2023-05-19T15:48:00;15.80;99.90
7194;DHT22;3638;48.820;9.244;2023-05-19T15:50:29;15.90;99.90
7194;DHT22;3638;48.820;9.244;2023-05-19T15:52:56;16.20;99.90
7194;DHT22;3638;48.820;9.244;2023-05-19T15:55:22;16.60;99.90
7194;DHT22;3638;48.820;9.244;2023-05-19T15:57:49;16.70;99.90
7194;DHT22;3638;48.820;9.244;2023-05-19T16:00:16;16.70;99.90
7194;DHT22;3638;48.820;9.244;2023-05-19T16:02:43;16.60;99.90
7194;DHT22;3638;48.820;9.244;2023-05-19T16:05:10;16.70;99.90
7194;DHT22;3638;48.820;9.244;2023-05-19T16:07:38;16.80;99.90
7194;DHT22;3638;48.820;9.244;2023-05-19T16:10:07;16.50;99.90
7194;DHT22;3638;48.820;9.244;2023-05-19T16:12:34;16.40;99.90
7194;DHT22;3638;48.820;9.244;2023-05-19T16:15:01;16.60;99.90
7194;DHT22;3638;48.820;9.244;2023-05-19T16:17:28;16.60;99.90
7194;DHT22;3638;48.820;9.244;2023-05-19T16:19:55;16.40;99.90
7194;DHT22;3638;48.820;9.244;2023-05-19T16:22:22;15.90;99.90
7194;DHT22;3638;48.820;9.244;2023-05-19T16:24:51;16.30;99.90
7194;DHT22;3638;48.820;9.244;2023-05-19T16:27:18;16.40;99.90
7194;DHT22;3638;48.820;9.244;2023-05-19T16:29:45;16.20;99.90
7194;DHT22;3638;48.820;9.244;2023-05-19T16:32:12;16.20;99.90